sensor_id;sensor_type;location;lat;lon;timestamp;P1;durP1;ratioP1;P2;durP2;ratioP2
43837;SDS011;65998;46.256;7.534;2023-04-19T00:00:30;39.25;;;17.55;;
43837;SDS011;65998;46.256;7.534;2023-04-19T00:03:14;36.42;;;15.85;;
43837;SDS011;65998;46.256;7.534;2023-04-19T00:05:40;36.05;;;16.50;;
43837;SDS011;65998;46.256;7.534;2023-04-19T00:08:06;35.07;;;15.20;;
43837;SDS011;65998;46.256;7.534;2023-04-19T00:10:32;39.60;;;17.33;;
43837;SDS011;65998;46.256;7.534;2023-04-19T00:12:58;33.60;;;16.10;;
43837;SDS011;65998;46.256;7.534;2023-04-19T00:15:24;35.83;;;16.67;;
43837;SDS011;65998;46.256;7.534;2023-04-19T00:17:50;38.53;;;15.40;;
43837;SDS011;65998;46.256;7.534;2023-04-19T00:20:16;32.85;;;15.38;;
43837;SDS011;65998;46.256;7.534;2023-04-19T00:22:42;34.47;;;15.30;;
43837;SDS011;65998;46.256;7.534;2023-04-19T00:25:08;36.22;;;16.13;;
43837;SDS011;65998;46.256;7.534;2023-04-19T00:27:33;35.92;;;15.50;;
43837;SDS011;65998;46.256;7.534;2023-04-19T00:30:00;34.47;;;15.83;;
43837;SDS011;65998;46.256;7.534;2023-04-19T00:32:26;35.17;;;15.88;;
43837;SDS011;65998;46.256;7.534;2023-04-19T00:34:52;34.05;;;16.42;;
43837;SDS011;65998;46.256;7.534;2023-04-19T00:37:17;35.40;;;15.30;;
43837;SDS011;65998;46.256;7.534;2023-04-19T00:39:43;34.17;;;15.77;;
43837;SDS011;65998;46.256;7.534;2023-04-19T00:42:09;32.78;;;15.20;;
43837;SDS011;65998;46.256;7.534;2023-04-19T00:44:35;32.35;;;15.30;;
43837;SDS011;65998;46.256;7.534;2023-04-19T00:47:00;35.75;;;15.90;;
43837;SDS011;65998;46.256;7.534;2023-04-19T00:49:27;35.80;;;15.73;;
43837;SDS011;65998;46.256;7.534;2023-04-19T00:51:52;33.35;;;14.80;;
43837;SDS011;65998;46.256;7.534;2023-04-19T00:54:18;36.83;;;15.70;;
43837;SDS011;65998;46.256;7.534;2023-04-19T00:56:44;35.40;;;14.95;;
43837;SDS011;65998;46.256;7.534;2023-04-19T00:59:12;30.58;;;15.02;;
43837;SDS011;65998;46.256;7.534;2023-04-19T01:01:39;32.63;;;15.10;;
43837;SDS011;65998;46.256;7.534;2023-04-19T01:04:05;35.95;;;15.18;;
43837;SDS011;65998;46.256;7.534;2023-04-19T01:06:31;36.27;;;16.00;;
43837;SDS011;65998;46.256;7.534;2023-04-19T01:08:57;36.30;;;15.80;;
43837;SDS011;65998;46.256;7.534;2023-04-19T01:11:23;34.53;;;14.47;;
43837;SDS011;65998;46.256;7.534;2023-04-19T01:13:49;35.47;;;14.85;;
43837;SDS011;65998;46.256;7.534;2023-04-19T01:16:16;37.00;;;14.90;;
43837;SDS011;65998;46.256;7.534;2023-04-19T01:18:42;34.15;;;14.45;;
43837;SDS011;65998;46.256;7.534;2023-04-19T01:21:09;31.83;;;13.80;;
43837;SDS011;65998;46.256;7.534;2023-04-19T01:23:35;34.63;;;15.03;;
43837;SDS011;65998;46.256;7.534;2023-04-19T01:26:01;36.03;;;15.18;;
43837;SDS011;65998;46.256;7.534;2023-04-19T01:28:27;33.45;;;14.70;;
43837;SDS011;65998;46.256;7.534;2023-04-19T01:30:53;33.63;;;14.13;;
43837;SDS011;65998;46.256;7.534;2023-04-19T01:33:19;35.70;;;15.03;;
43837;SDS011;65998;46.256;7.534;2023-04-19T01:35:46;30.38;;;13.45;;
43837;SDS011;65998;46.256;7.534;2023-04-19T01:38:13;32.30;;;14.07;;
43837;SDS011;65998;46.256;7.534;2023-04-19T01:40:39;29.98;;;13.40;;
43837;SDS011;65998;46.256;7.534;2023-04-19T01:43:06;30.80;;;13.48;;
43837;SDS011;65998;46.256;7.534;2023-04-19T01:45:32;30.80;;;13.90;;
43837;SDS011;65998;46.256;7.534;2023-04-19T01:47:59;30.95;;;13.68;;
43837;SDS011;65998;46.256;7.534;2023-04-19T01:50:25;29.13;;;13.68;;
43837;SDS011;65998;46.256;7.534;2023-04-19T01:52:51;29.35;;;13.27;;
43837;SDS011;65998;46.256;7.534;2023-04-19T01:55:17;28.33;;;11.57;;
43837;SDS011;65998;46.256;7.534;2023-04-19T01:57:43;28.63;;;12.73;;
43837;SDS011;65998;46.256;7.534;2023-04-19T02:00:09;27.73;;;11.85;;
43837;SDS011;65998;46.256;7.534;2023-04-19T02:02:39;27.17;;;12.00;;
43837;SDS011;65998;46.256;7.534;2023-04-19T02:05:05;27.30;;;12.10;;
43837;SDS011;65998;46.256;7.534;2023-04-19T02:07:31;28.73;;;11.87;;
43837;SDS011;65998;46.256;7.534;2023-04-19T02:09:57;28.30;;;12.38;;
43837;SDS011;65998;46.256;7.534;2023-04-19T02:12:23;28.42;;;12.32;;
43837;SDS011;65998;46.256;7.534;2023-04-19T02:14:48;27.15;;;11.50;;
43837;SDS011;65998;46.256;7.534;2023-04-19T02:17:14;27.52;;;11.98;;
43837;SDS011;65998;46.256;7.534;2023-04-19T02:19:40;32.13;;;12.43;;
43837;SDS011;65998;46.256;7.534;2023-04-19T02:22:06;27.73;;;12.07;;
43837;SDS011;65998;46.256;7.534;2023-04-19T02:24:32;26.87;;;11.77;;
43837;SDS011;65998;46.256;7.534;2023-04-19T02:26:58;24.75;;;11.52;;
43837;SDS011;65998;46.256;7.534;2023-04-19T02:29:23;26.77;;;11.10;;
43837;SDS011;65998;46.256;7.534;2023-04-19T02:31:49;26.25;;;11.02;;
43837;SDS011;65998;46.256;7.534;2023-04-19T02:34:15;25.88;;;10.90;;
43837;SDS011;65998;46.256;7.534;2023-04-19T02:36:41;23.40;;;10.48;;
43837;SDS011;65998;46.256;7.534;2023-04-19T02:39:07;24.17;;;10.30;;
43837;SDS011;65998;46.256;7.534;2023-04-19T02:41:33;25.00;;;11.02;;
43837;SDS011;65998;46.256;7.534;2023-04-19T02:43:58;26.67;;;11.10;;
43837;SDS011;65998;46.256;7.534;2023-04-19T02:46:24;29.08;;;12.70;;
43837;SDS011;65998;46.256;7.534;2023-04-19T02:48:50;27.60;;;11.70;;
43837;SDS011;65998;46.256;7.534;2023-04-19T02:51:16;26.38;;;10.65;;
43837;SDS011;65998;46.256;7.534;2023-04-19T02:53:42;26.48;;;11.57;;
43837;SDS011;65998;46.256;7.534;2023-04-19T02:56:08;25.35;;;10.93;;
43837;SDS011;65998;46.256;7.534;2023-04-19T02:58:34;23.47;;;10.93;;
43837;SDS011;65998;46.256;7.534;2023-04-19T03:01:00;24.98;;;10.70;;
43837;SDS011;65998;46.256;7.534;2023-04-19T03:03:25;22.20;;;10.37;;
43837;SDS011;65998;46.256;7.534;2023-04-19T03:05:51;25.42;;;10.27;;
43837;SDS011;65998;46.256;7.534;2023-04-19T03:08:17;21.63;;;10.70;;
43837;SDS011;65998;46.256;7.534;2023-04-19T03:10:43;28.60;;;13.40;;
43837;SDS011;65998;46.256;7.534;2023-04-19T03:13:09;28.92;;;13.82;;
43837;SDS011;65998;46.256;7.534;2023-04-19T03:15:35;30.40;;;13.63;;
43837;SDS011;65998;46.256;7.534;2023-04-19T03:18:00;23.10;;;11.50;;
43837;SDS011;65998;46.256;7.534;2023-04-19T03:20:26;25.52;;;11.90;;
43837;SDS011;65998;46.256;7.534;2023-04-19T03:22:52;25.50;;;11.80;;
43837;SDS011;65998;46.256;7.534;2023-04-19T03:25:18;28.60;;;12.43;;
43837;SDS011;65998;46.256;7.534;2023-04-19T03:27:44;29.88;;;12.13;;
43837;SDS011;65998;46.256;7.534;2023-04-19T03:30:11;24.40;;;10.90;;
43837;SDS011;65998;46.256;7.534;2023-04-19T03:32:37;22.98;;;10.32;;
43837;SDS011;65998;46.256;7.534;2023-04-19T03:35:03;24.85;;;10.48;;
43837;SDS011;65998;46.256;7.534;2023-04-19T03:37:29;22.38;;;10.85;;
43837;SDS011;65998;46.256;7.534;2023-04-19T03:39:55;24.38;;;11.93;;
43837;SDS011;65998;46.256;7.534;2023-04-19T03:42:20;21.02;;;9.48;;
43837;SDS011;65998;46.256;7.534;2023-04-19T03:44:46;21.42;;;9.70;;
43837;SDS011;65998;46.256;7.534;2023-04-19T03:47:12;19.67;;;9.03;;
43837;SDS011;65998;46.256;7.534;2023-04-19T03:49:38;19.80;;;8.80;;
43837;SDS011;65998;46.256;7.534;2023-04-19T03:52:03;20.90;;;8.73;;
43837;SDS011;65998;46.256;7.534;2023-04-19T03:54:29;18.92;;;8.65;;
43837;SDS011;65998;46.256;7.534;2023-04-19T03:56:55;19.60;;;8.30;;
43837;SDS011;65998;46.256;7.534;2023-04-19T03:59:21;19.02;;;8.38;;
43837;SDS011;65998;46.256;7.534;2023-04-19T04:01:47;18.05;;;7.97;;
43837;SDS011;65998;46.256;7.534;2023-04-19T04:04:13;18.00;;;7.43;;
43837;SDS011;65998;46.256;7.534;2023-04-19T04:06:38;21.58;;;8.80;;
43837;SDS011;65998;46.256;7.534;2023-04-19T04:09:04;18.33;;;8.40;;
43837;SDS011;65998;46.256;7.534;2023-04-19T04:11:30;18.07;;;8.30;;
43837;SDS011;65998;46.256;7.534;2023-04-19T04:13:56;17.48;;;7.68;;
43837;SDS011;65998;46.256;7.534;2023-04-19T04:16:22;17.17;;;7.60;;
43837;SDS011;65998;46.256;7.534;2023-04-19T04:18:48;16.83;;;7.68;;
43837;SDS011;65998;46.256;7.534;2023-04-19T04:21:13;18.23;;;7.53;;
43837;SDS011;65998;46.256;7.534;2023-04-19T04:23:39;17.23;;;7.10;;
43837;SDS011;65998;46.256;7.534;2023-04-19T04:26:05;17.27;;;7.82;;
43837;SDS011;65998;46.256;7.534;2023-04-19T04:28:31;16.03;;;7.03;;
43837;SDS011;65998;46.256;7.534;2023-04-19T04:30:57;16.88;;;7.15;;
43837;SDS011;65998;46.256;7.534;2023-04-19T04:33:24;17.23;;;7.50;;
43837;SDS011;65998;46.256;7.534;2023-04-19T04:35:50;16.98;;;6.57;;
43837;SDS011;65998;46.256;7.534;2023-04-19T04:38:17;15.40;;;7.03;;
43837;SDS011;65998;46.256;7.534;2023-04-19T04:40:43;17.35;;;6.28;;
43837;SDS011;65998;46.256;7.534;2023-04-19T04:43:14;15.10;;;6.72;;
43837;SDS011;65998;46.256;7.534;2023-04-19T04:45:40;14.70;;;6.17;;
43837;SDS011;65998;46.256;7.534;2023-04-19T04:48:06;16.42;;;7.00;;
43837;SDS011;65998;46.256;7.534;2023-04-19T04:50:31;17.42;;;7.25;;
43837;SDS011;65998;46.256;7.534;2023-04-19T04:52:57;14.07;;;6.45;;
43837;SDS011;65998;46.256;7.534;2023-04-19T04:55:23;17.02;;;6.20;;
43837;SDS011;65998;46.256;7.534;2023-04-19T04:57:49;14.38;;;6.10;;
43837;SDS011;65998;46.256;7.534;2023-04-19T05:00:15;16.03;;;6.30;;
43837;SDS011;65998;46.256;7.534;2023-04-19T05:02:41;14.23;;;5.97;;
43837;SDS011;65998;46.256;7.534;2023-04-19T05:05:07;13.27;;;6.07;;
43837;SDS011;65998;46.256;7.534;2023-04-19T05:07:33;14.32;;;5.72;;
43837;SDS011;65998;46.256;7.534;2023-04-19T05:09:59;14.32;;;5.75;;
43837;SDS011;65998;46.256;7.534;2023-04-19T05:12:25;13.77;;;6.13;;
43837;SDS011;65998;46.256;7.534;2023-04-19T05:14:50;12.35;;;5.45;;
43837;SDS011;65998;46.256;7.534;2023-04-19T05:17:16;14.27;;;6.05;;
43837;SDS011;65998;46.256;7.534;2023-04-19T05:19:42;13.68;;;5.80;;
43837;SDS011;65998;46.256;7.534;2023-04-19T05:22:08;21.95;;;6.30;;
43837;SDS011;65998;46.256;7.534;2023-04-19T05:24:34;14.73;;;5.70;;
43837;SDS011;65998;46.256;7.534;2023-04-19T05:27:01;14.23;;;6.50;;
43837;SDS011;65998;46.256;7.534;2023-04-19T05:29:27;17.00;;;5.82;;
43837;SDS011;65998;46.256;7.534;2023-04-19T05:31:53;13.15;;;5.53;;
43837;SDS011;65998;46.256;7.534;2023-04-19T05:34:18;13.70;;;5.50;;
43837;SDS011;65998;46.256;7.534;2023-04-19T05:36:44;12.45;;;5.30;;
43837;SDS011;65998;46.256;7.534;2023-04-19T05:39:10;13.80;;;5.80;;
43837;SDS011;65998;46.256;7.534;2023-04-19T05:41:36;11.98;;;4.90;;
43837;SDS011;65998;46.256;7.534;2023-04-19T05:44:02;11.35;;;4.80;;
43837;SDS011;65998;46.256;7.534;2023-04-19T05:46:28;13.82;;;5.00;;
43837;SDS011;65998;46.256;7.534;2023-04-19T05:48:53;13.63;;;4.95;;
43837;SDS011;65998;46.256;7.534;2023-04-19T05:51:19;11.60;;;4.90;;
43837;SDS011;65998;46.256;7.534;2023-04-19T05:53:45;12.55;;;5.00;;
43837;SDS011;65998;46.256;7.534;2023-04-19T05:56:11;10.80;;;4.97;;
43837;SDS011;65998;46.256;7.534;2023-04-19T05:58:37;10.60;;;4.73;;
43837;SDS011;65998;46.256;7.534;2023-04-19T06:01:03;10.75;;;4.55;;
43837;SDS011;65998;46.256;7.534;2023-04-19T06:03:29;11.97;;;5.30;;
43837;SDS011;65998;46.256;7.534;2023-04-19T06:05:55;10.50;;;4.57;;
43837;SDS011;65998;46.256;7.534;2023-04-19T06:08:20;9.95;;;4.40;;
43837;SDS011;65998;46.256;7.534;2023-04-19T06:10:46;9.97;;;4.20;;
43837;SDS011;65998;46.256;7.534;2023-04-19T06:13:12;10.80;;;4.15;;
43837;SDS011;65998;46.256;7.534;2023-04-19T06:15:38;11.13;;;4.50;;
43837;SDS011;65998;46.256;7.534;2023-04-19T06:18:04;9.97;;;4.53;;
43837;SDS011;65998;46.256;7.534;2023-04-19T06:20:30;11.57;;;4.63;;
43837;SDS011;65998;46.256;7.534;2023-04-19T06:22:56;11.33;;;3.87;;
43837;SDS011;65998;46.256;7.534;2023-04-19T06:25:22;8.35;;;3.67;;
43837;SDS011;65998;46.256;7.534;2023-04-19T06:27:49;10.98;;;3.92;;
43837;SDS011;65998;46.256;7.534;2023-04-19T06:30:15;9.10;;;3.47;;
43837;SDS011;65998;46.256;7.534;2023-04-19T06:32:40;9.90;;;3.97;;
43837;SDS011;65998;46.256;7.534;2023-04-19T06:35:06;10.18;;;3.67;;
43837;SDS011;65998;46.256;7.534;2023-04-19T06:37:32;10.55;;;3.60;;
43837;SDS011;65998;46.256;7.534;2023-04-19T06:39:58;8.98;;;3.72;;
43837;SDS011;65998;46.256;7.534;2023-04-19T06:42:24;8.80;;;3.57;;
43837;SDS011;65998;46.256;7.534;2023-04-19T06:44:50;12.88;;;3.75;;
43837;SDS011;65998;46.256;7.534;2023-04-19T06:47:16;9.20;;;3.60;;
43837;SDS011;65998;46.256;7.534;2023-04-19T06:49:42;11.30;;;3.55;;
43837;SDS011;65998;46.256;7.534;2023-04-19T06:52:07;7.25;;;3.35;;
43837;SDS011;65998;46.256;7.534;2023-04-19T06:54:33;11.00;;;3.60;;
43837;SDS011;65998;46.256;7.534;2023-04-19T06:56:59;14.25;;;3.42;;
43837;SDS011;65998;46.256;7.534;2023-04-19T06:59:25;8.17;;;3.40;;
43837;SDS011;65998;46.256;7.534;2023-04-19T07:01:50;8.48;;;3.10;;
43837;SDS011;65998;46.256;7.534;2023-04-19T07:04:17;8.02;;;3.53;;
43837;SDS011;65998;46.256;7.534;2023-04-19T07:06:42;9.80;;;3.27;;
43837;SDS011;65998;46.256;7.534;2023-04-19T07:09:08;8.80;;;3.17;;
43837;SDS011;65998;46.256;7.534;2023-04-19T07:11:34;7.23;;;2.70;;
43837;SDS011;65998;46.256;7.534;2023-04-19T07:14:00;10.05;;;3.00;;
43837;SDS011;65998;46.256;7.534;2023-04-19T07:16:26;7.73;;;3.00;;
43837;SDS011;65998;46.256;7.534;2023-04-19T07:18:52;9.07;;;3.03;;
43837;SDS011;65998;46.256;7.534;2023-04-19T07:21:18;7.05;;;3.35;;
43837;SDS011;65998;46.256;7.534;2023-04-19T07:23:44;8.07;;;3.22;;
43837;SDS011;65998;46.256;7.534;2023-04-19T07:26:10;12.43;;;2.90;;
43837;SDS011;65998;46.256;7.534;2023-04-19T07:28:37;8.15;;;2.70;;
43837;SDS011;65998;46.256;7.534;2023-04-19T07:31:04;11.60;;;3.58;;
43837;SDS011;65998;46.256;7.534;2023-04-19T07:33:30;10.57;;;2.60;;
43837;SDS011;65998;46.256;7.534;2023-04-19T07:35:55;7.90;;;3.00;;
43837;SDS011;65998;46.256;7.534;2023-04-19T07:38:22;12.43;;;3.00;;
43837;SDS011;65998;46.256;7.534;2023-04-19T07:40:48;10.48;;;2.80;;
43837;SDS011;65998;46.256;7.534;2023-04-19T07:43:14;11.50;;;3.10;;
43837;SDS011;65998;46.256;7.534;2023-04-19T07:45:40;8.82;;;2.60;;
43837;SDS011;65998;46.256;7.534;2023-04-19T07:48:05;7.23;;;2.90;;
43837;SDS011;65998;46.256;7.534;2023-04-19T07:50:31;7.47;;;3.10;;
43837;SDS011;65998;46.256;7.534;2023-04-19T07:52:57;7.60;;;3.00;;
43837;SDS011;65998;46.256;7.534;2023-04-19T07:55:23;10.20;;;3.60;;
43837;SDS011;65998;46.256;7.534;2023-04-19T07:57:49;6.53;;;2.78;;
43837;SDS011;65998;46.256;7.534;2023-04-19T08:00:15;10.40;;;2.47;;
43837;SDS011;65998;46.256;7.534;2023-04-19T08:02:44;8.45;;;2.45;;
43837;SDS011;65998;46.256;7.534;2023-04-19T08:05:10;7.93;;;2.85;;
43837;SDS011;65998;46.256;7.534;2023-04-19T08:07:37;9.35;;;2.70;;
43837;SDS011;65998;46.256;7.534;2023-04-19T08:10:04;10.98;;;2.55;;
43837;SDS011;65998;46.256;7.534;2023-04-19T08:12:33;9.65;;;2.10;;
43837;SDS011;65998;46.256;7.534;2023-04-19T08:14:59;10.00;;;2.47;;
43837;SDS011;65998;46.256;7.534;2023-04-19T08:17:25;7.18;;;2.15;;
43837;SDS011;65998;46.256;7.534;2023-04-19T08:19:51;17.90;;;2.40;;
43837;SDS011;65998;46.256;7.534;2023-04-19T08:22:18;6.53;;;1.87;;
43837;SDS011;65998;46.256;7.534;2023-04-19T08:24:45;11.10;;;2.58;;
43837;SDS011;65998;46.256;7.534;2023-04-19T08:27:11;13.68;;;2.40;;
43837;SDS011;65998;46.256;7.534;2023-04-19T08:29:36;6.78;;;2.13;;
43837;SDS011;65998;46.256;7.534;2023-04-19T08:32:03;7.35;;;2.30;;
43837;SDS011;65998;46.256;7.534;2023-04-19T08:34:29;18.10;;;2.47;;
43837;SDS011;65998;46.256;7.534;2023-04-19T08:36:56;7.97;;;2.08;;
43837;SDS011;65998;46.256;7.534;2023-04-19T08:39:21;5.93;;;1.60;;
43837;SDS011;65998;46.256;7.534;2023-04-19T08:41:48;4.28;;;1.55;;
43837;SDS011;65998;46.256;7.534;2023-04-19T08:44:14;5.72;;;1.35;;
43837;SDS011;65998;46.256;7.534;2023-04-19T08:46:41;6.95;;;1.52;;
43837;SDS011;65998;46.256;7.534;2023-04-19T08:49:08;5.07;;;1.60;;
43837;SDS011;65998;46.256;7.534;2023-04-19T08:51:36;5.87;;;2.10;;
43837;SDS011;65998;46.256;7.534;2023-04-19T08:54:03;10.25;;;1.50;;
43837;SDS011;65998;46.256;7.534;2023-04-19T08:56:29;5.88;;;1.45;;
43837;SDS011;65998;46.256;7.534;2023-04-19T08:58:55;6.18;;;1.55;;
43837;SDS011;65998;46.256;7.534;2023-04-19T09:01:21;10.45;;;1.50;;
43837;SDS011;65998;46.256;7.534;2023-04-19T09:03:47;6.50;;;1.30;;
43837;SDS011;65998;46.256;7.534;2023-04-19T09:06:13;5.03;;;1.35;;
43837;SDS011;65998;46.256;7.534;2023-04-19T09:08:39;5.22;;;1.40;;
43837;SDS011;65998;46.256;7.534;2023-04-19T09:11:05;8.38;;;1.70;;
43837;SDS011;65998;46.256;7.534;2023-04-19T09:13:31;8.02;;;1.67;;
43837;SDS011;65998;46.256;7.534;2023-04-19T09:15:57;5.15;;;1.35;;
43837;SDS011;65998;46.256;7.534;2023-04-19T09:18:23;4.13;;;1.20;;
43837;SDS011;65998;46.256;7.534;2023-04-19T09:20:49;4.28;;;1.48;;
43837;SDS011;65998;46.256;7.534;2023-04-19T09:23:17;14.00;;;1.80;;
43837;SDS011;65998;46.256;7.534;2023-04-19T09:25:50;9.38;;;1.75;;
43837;SDS011;65998;46.256;7.534;2023-04-19T09:28:18;4.18;;;1.13;;
43837;SDS011;65998;46.256;7.534;2023-04-19T09:30:45;21.58;;;2.00;;
43837;SDS011;65998;46.256;7.534;2023-04-19T09:33:11;9.65;;;1.35;;
43837;SDS011;65998;46.256;7.534;2023-04-19T09:38:06;8.13;;;1.33;;
43837;SDS011;65998;46.256;7.534;2023-04-19T09:40:32;6.32;;;1.00;;
43837;SDS011;65998;46.256;7.534;2023-04-19T09:42:58;7.28;;;1.20;;
43837;SDS011;65998;46.256;7.534;2023-04-19T09:45:25;13.80;;;1.40;;
43837;SDS011;65998;46.256;7.534;2023-04-19T09:48:10;15.95;;;1.30;;
43837;SDS011;65998;46.256;7.534;2023-04-19T09:50:53;6.18;;;1.17;;
43837;SDS011;65998;46.256;7.534;2023-04-19T09:53:21;10.60;;;1.40;;
43837;SDS011;65998;46.256;7.534;2023-04-19T09:55:48;7.57;;;1.80;;
43837;SDS011;65998;46.256;7.534;2023-04-19T09:58:14;6.30;;;1.20;;
43837;SDS011;65998;46.256;7.534;2023-04-19T10:00:42;2.90;;;0.90;;
43837;SDS011;65998;46.256;7.534;2023-04-19T10:03:09;3.40;;;0.88;;
43837;SDS011;65998;46.256;7.534;2023-04-19T10:05:37;4.00;;;0.80;;
43837;SDS011;65998;46.256;7.534;2023-04-19T10:08:05;4.72;;;1.00;;
43837;SDS011;65998;46.256;7.534;2023-04-19T10:10:32;2.22;;;0.70;;
43837;SDS011;65998;46.256;7.534;2023-04-19T10:12:58;3.25;;;0.70;;
43837;SDS011;65998;46.256;7.534;2023-04-19T10:15:27;1.85;;;0.70;;
43837;SDS011;65998;46.256;7.534;2023-04-19T10:17:54;4.00;;;0.70;;
43837;SDS011;65998;46.256;7.534;2023-04-19T10:20:26;2.28;;;0.70;;
43837;SDS011;65998;46.256;7.534;2023-04-19T10:22:58;2.00;;;0.60;;
43837;SDS011;65998;46.256;7.534;2023-04-19T10:25:28;2.30;;;0.70;;
43837;SDS011;65998;46.256;7.534;2023-04-19T10:27:54;1.67;;;0.60;;
43837;SDS011;65998;46.256;7.534;2023-04-19T10:30:21;1.95;;;0.70;;
43837;SDS011;65998;46.256;7.534;2023-04-19T10:32:54;1.67;;;0.50;;
43837;SDS011;65998;46.256;7.534;2023-04-19T10:35:25;1.80;;;0.50;;
43837;SDS011;65998;46.256;7.534;2023-04-19T10:43:20;2.10;;;0.70;;
43837;SDS011;65998;46.256;7.534;2023-04-19T10:45:47;1.80;;;0.60;;
43837;SDS011;65998;46.256;7.534;2023-04-19T10:56:22;2.83;;;0.90;;
43837;SDS011;65998;46.256;7.534;2023-04-19T11:03:59;6.53;;;1.10;;
43837;SDS011;65998;46.256;7.534;2023-04-19T11:06:26;10.18;;;1.35;;
43837;SDS011;65998;46.256;7.534;2023-04-19T11:08:52;6.20;;;1.48;;
43837;SDS011;65998;46.256;7.534;2023-04-19T11:11:20;6.13;;;1.00;;
43837;SDS011;65998;46.256;7.534;2023-04-19T11:13:49;4.10;;;0.80;;
43837;SDS011;65998;46.256;7.534;2023-04-19T11:16:16;2.40;;;0.80;;
43837;SDS011;65998;46.256;7.534;2023-04-19T11:18:43;4.25;;;0.80;;
43837;SDS011;65998;46.256;7.534;2023-04-19T11:21:13;4.57;;;1.00;;
43837;SDS011;65998;46.256;7.534;2023-04-19T11:23:42;2.03;;;0.70;;
43837;SDS011;65998;46.256;7.534;2023-04-19T11:26:10;3.38;;;0.90;;
43837;SDS011;65998;46.256;7.534;2023-04-19T11:28:37;3.20;;;0.77;;
43837;SDS011;65998;46.256;7.534;2023-04-19T11:31:05;5.47;;;0.98;;
43837;SDS011;65998;46.256;7.534;2023-04-19T11:33:32;2.22;;;0.80;;
43837;SDS011;65998;46.256;7.534;2023-04-19T11:36:07;10.30;;;1.20;;
43837;SDS011;65998;46.256;7.534;2023-04-19T11:38:36;8.43;;;0.88;;
43837;SDS011;65998;46.256;7.534;2023-04-19T11:41:02;5.10;;;0.70;;
43837;SDS011;65998;46.256;7.534;2023-04-19T11:43:32;2.53;;;0.80;;
43837;SDS011;65998;46.256;7.534;2023-04-19T11:46:03;4.30;;;1.00;;
43837;SDS011;65998;46.256;7.534;2023-04-19T11:48:36;2.50;;;0.70;;
43837;SDS011;65998;46.256;7.534;2023-04-19T11:51:03;2.08;;;0.70;;
43837;SDS011;65998;46.256;7.534;2023-04-19T11:53:29;2.10;;;0.80;;
43837;SDS011;65998;46.256;7.534;2023-04-19T11:56:04;2.88;;;0.75;;
43837;SDS011;65998;46.256;7.534;2023-04-19T11:58:39;2.22;;;0.70;;
43837;SDS011;65998;46.256;7.534;2023-04-19T12:01:08;2.10;;;0.80;;
43837;SDS011;65998;46.256;7.534;2023-04-19T12:03:53;2.30;;;0.80;;
43837;SDS011;65998;46.256;7.534;2023-04-19T12:06:24;3.85;;;0.80;;
43837;SDS011;65998;46.256;7.534;2023-04-19T12:08:54;2.75;;;0.80;;
43837;SDS011;65998;46.256;7.534;2023-04-19T12:11:22;2.28;;;0.70;;
43837;SDS011;65998;46.256;7.534;2023-04-19T12:14:13;3.33;;;1.00;;
43837;SDS011;65998;46.256;7.534;2023-04-19T12:16:39;2.13;;;0.85;;
43837;SDS011;65998;46.256;7.534;2023-04-19T12:19:15;1.98;;;0.70;;
43837;SDS011;65998;46.256;7.534;2023-04-19T12:21:43;1.95;;;0.75;;
43837;SDS011;65998;46.256;7.534;2023-04-19T12:24:09;2.38;;;0.77;;
43837;SDS011;65998;46.256;7.534;2023-04-19T12:26:35;3.20;;;0.80;;
43837;SDS011;65998;46.256;7.534;2023-04-19T12:29:02;4.80;;;1.00;;
43837;SDS011;65998;46.256;7.534;2023-04-19T12:31:29;4.88;;;1.20;;
43837;SDS011;65998;46.256;7.534;2023-04-19T12:33:55;2.47;;;0.90;;
43837;SDS011;65998;46.256;7.534;2023-04-19T12:36:22;2.90;;;1.30;;
43837;SDS011;65998;46.256;7.534;2023-04-19T12:38:47;2.50;;;1.20;;
43837;SDS011;65998;46.256;7.534;2023-04-19T12:41:14;6.90;;;1.10;;
43837;SDS011;65998;46.256;7.534;2023-04-19T12:43:40;2.65;;;1.17;;
43837;SDS011;65998;46.256;7.534;2023-04-19T12:46:06;2.78;;;1.20;;
43837;SDS011;65998;46.256;7.534;2023-04-19T12:48:32;3.90;;;1.30;;
43837;SDS011;65998;46.256;7.534;2023-04-19T12:50:59;3.03;;;1.02;;
43837;SDS011;65998;46.256;7.534;2023-04-19T12:53:25;4.05;;;1.10;;
43837;SDS011;65998;46.256;7.534;2023-04-19T12:55:51;3.00;;;1.20;;
43837;SDS011;65998;46.256;7.534;2023-04-19T12:58:17;8.68;;;1.20;;
43837;SDS011;65998;46.256;7.534;2023-04-19T13:00:43;3.75;;;1.17;;
43837;SDS011;65998;46.256;7.534;2023-04-19T13:03:10;2.85;;;1.00;;
43837;SDS011;65998;46.256;7.534;2023-04-19T13:05:37;2.55;;;1.10;;
43837;SDS011;65998;46.256;7.534;2023-04-19T13:08:06;3.17;;;1.20;;
43837;SDS011;65998;46.256;7.534;2023-04-19T13:10:33;3.42;;;1.50;;
43837;SDS011;65998;46.256;7.534;2023-04-19T13:12:59;3.07;;;1.50;;
43837;SDS011;65998;46.256;7.534;2023-04-19T13:15:26;3.10;;;1.38;;
43837;SDS011;65998;46.256;7.534;2023-04-19T13:17:51;3.75;;;1.42;;
43837;SDS011;65998;46.256;7.534;2023-04-19T13:20:18;3.58;;;1.50;;
43837;SDS011;65998;46.256;7.534;2023-04-19T13:22:44;3.55;;;1.60;;
43837;SDS011;65998;46.256;7.534;2023-04-19T13:25:11;3.83;;;1.38;;
43837;SDS011;65998;46.256;7.534;2023-04-19T13:27:37;3.80;;;1.40;;
43837;SDS011;65998;46.256;7.534;2023-04-19T13:30:03;4.43;;;1.40;;
43837;SDS011;65998;46.256;7.534;2023-04-19T13:32:29;3.55;;;1.20;;
43837;SDS011;65998;46.256;7.534;2023-04-19T13:34:55;3.22;;;1.20;;
43837;SDS011;65998;46.256;7.534;2023-04-19T13:37:21;3.23;;;1.30;;
43837;SDS011;65998;46.256;7.534;2023-04-19T13:39:47;2.65;;;1.35;;
43837;SDS011;65998;46.256;7.534;2023-04-19T13:42:12;4.60;;;1.42;;
43837;SDS011;65998;46.256;7.534;2023-04-19T13:44:38;2.87;;;1.40;;
43837;SDS011;65998;46.256;7.534;2023-04-19T13:47:04;3.05;;;1.13;;
43837;SDS011;65998;46.256;7.534;2023-04-19T13:49:30;2.70;;;1.20;;
43837;SDS011;65998;46.256;7.534;2023-04-19T13:51:56;3.60;;;1.00;;
43837;SDS011;65998;46.256;7.534;2023-04-19T13:54:22;3.33;;;1.10;;
43837;SDS011;65998;46.256;7.534;2023-04-19T13:56:48;2.90;;;1.30;;
43837;SDS011;65998;46.256;7.534;2023-04-19T13:59:14;2.60;;;1.05;;
43837;SDS011;65998;46.256;7.534;2023-04-19T14:01:41;3.40;;;1.08;;
43837;SDS011;65998;46.256;7.534;2023-04-19T14:04:07;4.18;;;2.17;;
43837;SDS011;65998;46.256;7.534;2023-04-19T14:06:32;8.17;;;3.40;;
43837;SDS011;65998;46.256;7.534;2023-04-19T14:08:59;5.88;;;3.17;;
43837;SDS011;65998;46.256;7.534;2023-04-19T14:11:24;6.43;;;3.30;;
43837;SDS011;65998;46.256;7.534;2023-04-19T14:13:51;8.32;;;4.32;;
43837;SDS011;65998;46.256;7.534;2023-04-19T14:16:17;9.03;;;5.00;;
43837;SDS011;65998;46.256;7.534;2023-04-19T14:18:44;9.38;;;5.50;;
43837;SDS011;65998;46.256;7.534;2023-04-19T14:21:10;9.30;;;4.70;;
43837;SDS011;65998;46.256;7.534;2023-04-19T14:23:36;8.60;;;4.80;;
43837;SDS011;65998;46.256;7.534;2023-04-19T14:26:02;8.17;;;5.00;;
43837;SDS011;65998;46.256;7.534;2023-04-19T14:28:29;10.57;;;5.07;;
43837;SDS011;65998;46.256;7.534;2023-04-19T14:30:55;7.90;;;4.70;;
43837;SDS011;65998;46.256;7.534;2023-04-19T14:33:21;7.50;;;4.70;;
43837;SDS011;65998;46.256;7.534;2023-04-19T14:35:47;10.48;;;5.40;;
43837;SDS011;65998;46.256;7.534;2023-04-19T14:38:13;10.73;;;5.63;;
43837;SDS011;65998;46.256;7.534;2023-04-19T14:40:39;9.48;;;4.90;;
43837;SDS011;65998;46.256;7.534;2023-04-19T14:43:05;6.63;;;3.83;;
43837;SDS011;65998;46.256;7.534;2023-04-19T14:45:31;5.10;;;2.10;;
43837;SDS011;65998;46.256;7.534;2023-04-19T14:47:57;3.63;;;2.10;;
43837;SDS011;65998;46.256;7.534;2023-04-19T14:50:22;5.03;;;1.73;;
43837;SDS011;65998;46.256;7.534;2023-04-19T14:52:50;4.45;;;1.95;;
43837;SDS011;65998;46.256;7.534;2023-04-19T14:55:16;3.58;;;1.90;;